Time;durP1;ratioP1;P1;durP2;ratioP2;P2;SDS_P1;SDS_P2;PMS_P1;PMS_P2;Temp;Humidity;BMP_temperature;BMP_pressure;BME280_temperature;BME280_humidity;BME280_pressure;Samples;Min_cycle;Max_cycle;Signal;HPM_P1;HPM_P2
2022/12/10 00:01:12;;;;;;;48.83;27.75;;;0.10;99.90;;;;;;5071479;28;20534;-72
2022/12/10 00:03:39;;;;;;;54.08;30.55;;;0.10;99.90;;;;;;5054766;28;20037;-72
2022/12/10 00:06:07;;;;;;;52.42;28.60;;;0.10;99.90;;;;;;5071835;28;20055;-72
2022/12/10 00:08:34;;;;;;;46.88;27.35;;;0.10;99.90;;;;;;5071805;28;20189;-72
2022/12/10 00:11:02;;;;;;;48.95;27.52;;;0.10;99.90;;;;;;5071552;28;20051;-72
2022/12/10 00:13:27;;;;;;;46.50;28.98;;;0.10;99.90;;;;;;5071748;28;20037;-72
2022/12/10 00:15:53;;;;;;;53.63;30.88;;;0.10;99.90;;;;;;5071840;28;20393;-72
2022/12/10 00:18:19;;;;;;;51.78;29.20;;;0.10;99.90;;;;;;5071489;28;20067;-72
2022/12/10 00:20:44;;;;;;;52.25;29.98;;;0.10;99.90;;;;;;5071380;28;20044;-72
2022/12/10 00:23:10;;;;;;;51.40;30.63;;;0.10;99.90;;;;;;5054785;28;20134;-72
2022/12/10 00:25:35;;;;;;;52.58;29.73;;;0.10;99.90;;;;;;5071599;28;20044;-72
2022/12/10 00:28:01;;;;;;;50.47;29.45;;;0.00;99.90;;;;;;5075158;28;20040;-72
2022/12/10 00:30:26;;;;;;;49.67;28.92;;;0.00;99.90;;;;;;5075135;28;20045;-72
2022/12/10 00:32:52;;;;;;;53.05;29.95;;;-0.10;99.90;;;;;;5075362;28;20083;-72
2022/12/10 00:35:17;;;;;;;54.08;29.40;;;-0.10;99.90;;;;;;5075008;28;20527;-72
2022/12/10 00:37:43;;;;;;;48.72;28.95;;;-0.20;99.90;;;;;;5075025;28;20079;-72
2022/12/10 00:40:10;;;;;;;49.70;28.77;;;-0.20;99.90;;;;;;5074960;28;20044;-72
2022/12/10 00:42:36;;;;;;;52.90;30.08;;;-0.30;99.90;;;;;;5074895;28;20160;-72
2022/12/10 00:45:03;;;;;;;49.22;28.65;;;-0.30;99.90;;;;;;5074797;28;20533;-72
2022/12/10 00:47:29;;;;;;;50.00;29.65;;;-0.30;99.90;;;;;;5074714;28;20079;-72
2022/12/10 00:49:54;;;;;;;52.55;30.95;;;-0.30;99.90;;;;;;5074812;28;20079;-72
2022/12/10 00:52:20;;;;;;;59.20;29.85;;;-0.30;99.90;;;;;;5074704;28;20036;-72
2022/12/10 00:54:47;;;;;;;51.50;30.38;;;-0.30;99.90;;;;;;5074673;28;20523;-72
2022/12/10 00:57:12;;;;;;;55.85;31.98;;;-0.30;99.90;;;;;;5074689;28;20123;-72
2022/12/10 00:59:38;;;;;;;54.50;31.25;;;-0.30;99.90;;;;;;5074838;28;20044;-72
2022/12/10 01:02:03;;;;;;;55.65;31.50;;;-0.30;99.90;;;;;;5074493;28;20128;-72
2022/12/10 01:04:29;;;;;;;55.60;31.73;;;-0.30;99.90;;;;;;5074445;28;20049;-72
2022/12/10 01:06:54;;;;;;;53.25;30.73;;;-0.30;99.90;;;;;;5074744;28;20124;-72
2022/12/10 01:09:26;;;;;;;56.10;31.25;;;-0.40;99.90;;;;;;5074457;28;20413;-72
2022/12/10 01:11:53;;;;;;;51.03;30.23;;;-0.40;99.90;;;;;;5074410;28;20123;-72
2022/12/10 01:14:23;;;;;;;54.10;30.90;;;-0.40;99.90;;;;;;5074284;28;20053;-72
2022/12/10 01:16:49;;;;;;;56.85;31.35;;;-0.40;99.90;;;;;;5074377;28;20140;-72
2022/12/10 01:19:16;;;;;;;57.38;31.85;;;-0.50;99.90;;;;;;5074532;28;20051;-72
2022/12/10 01:21:41;;;;;;;55.95;29.95;;;-0.50;99.90;;;;;;5074144;28;20095;-72
2022/12/10 01:24:07;;;;;;;55.67;30.65;;;-0.50;99.90;;;;;;5074090;28;20037;-72
2022/12/10 01:26:34;;;;;;;54.10;31.33;;;-0.40;99.90;;;;;;5074170;28;20037;-72
2022/12/10 01:29:01;;;;;;;55.13;32.10;;;-0.40;99.90;;;;;;5074079;28;20070;-72
2022/12/10 01:31:29;;;;;;;55.47;30.50;;;-0.40;99.90;;;;;;5074281;28;20528;-72
2022/12/10 01:33:57;;;;;;;55.03;32.30;;;-0.40;99.90;;;;;;5073903;28;20111;-72
2022/12/10 01:36:29;;;;;;;50.13;30.52;;;-0.40;99.90;;;;;;5073941;28;20508;-72
2022/12/10 01:38:56;;;;;;;59.13;33.33;;;-0.40;99.90;;;;;;5073701;28;20048;-72
2022/12/10 01:41:28;;;;;;;57.35;32.42;;;-0.40;99.90;;;;;;5073802;28;20041;-72
2022/12/10 01:44:13;;;;;;;58.03;32.60;;;-0.40;99.90;;;;;;5073753;28;20520;-72
2022/12/10 01:46:44;;;;;;;61.08;32.33;;;-0.40;99.90;;;;;;5043358;28;20135;-72
2022/12/10 01:49:13;;;;;;;62.63;34.03;;;-0.50;99.90;;;;;;5073994;28;20089;-72
2022/12/10 01:51:41;;;;;;;55.35;31.95;;;-0.60;99.90;;;;;;5073889;28;20049;-72
2022/12/10 01:54:12;;;;;;;56.30;33.08;;;-0.60;99.90;;;;;;5073729;28;20047;-72
2022/12/10 01:56:43;;;;;;;61.58;33.13;;;-0.60;99.90;;;;;;5073606;28;20068;-72
2022/12/10 01:59:09;;;;;;;60.47;34.67;;;-0.60;99.90;;;;;;5073561;28;20048;-72
2022/12/10 02:01:44;;;;;;;59.40;32.72;;;-0.60;99.90;;;;;;5073389;28;20049;-72
2022/12/10 02:04:21;;;;;;;61.25;34.30;;;-0.60;99.90;;;;;;5073867;28;20082;-72
2022/12/10 02:06:59;;;;;;;64.22;34.95;;;-0.60;99.90;;;;;;5073379;28;20043;-72
2022/12/10 02:09:45;;;;;;;62.58;34.15;;;-0.70;99.90;;;;;;5073985;28;20451;-72
2022/12/10 02:12:21;;;;;;;62.10;33.78;;;-0.70;99.90;;;;;;5056816;28;20036;-71
2022/12/10 02:14:53;;;;;;;62.20;33.70;;;-0.70;99.90;;;;;;5073213;28;20070;-72
2022/12/10 02:17:41;;;;;;;60.28;34.40;;;-0.70;99.90;;;;;;5073423;28;20594;-72
2022/12/10 02:20:24;;;;;;;65.30;34.85;;;-0.70;99.90;;;;;;5073170;28;20048;-72
2022/12/10 02:23:05;;;;;;;62.15;33.40;;;-0.80;99.90;;;;;;5073045;28;20047;-72
2022/12/10 02:25:42;;;;;;;66.30;35.17;;;-0.80;99.90;;;;;;5073249;28;20058;-72
2022/12/10 02:28:20;;;;;;;60.75;33.78;;;-0.80;99.90;;;;;;5072986;28;20052;-72
2022/12/10 02:30:48;;;;;;;64.03;34.65;;;-0.80;99.90;;;;;;5073166;28;20037;-72
2022/12/10 02:33:16;;;;;;;62.97;34.20;;;-0.80;99.90;;;;;;5073070;28;20052;-72
2022/12/10 02:35:42;;;;;;;62.30;33.30;;;-0.80;99.90;;;;;;5072964;28;20048;-72
2022/12/10 02:38:10;;;;;;;66.60;34.88;;;-0.80;99.90;;;;;;5056040;28;20486;-72
2022/12/10 02:40:39;;;;;;;68.55;36.53;;;-0.70;99.90;;;;;;5072618;28;20045;-72
2022/12/10 02:43:07;;;;;;;62.90;34.53;;;-0.70;99.90;;;;;;5072628;28;20047;-72
2022/12/10 02:45:34;;;;;;;61.65;33.97;;;-0.70;99.90;;;;;;5072485;28;20082;-72
2022/12/10 02:48:01;;;;;;;66.88;35.80;;;-0.70;99.90;;;;;;5072498;28;20045;-72
2022/12/10 02:50:27;;;;;;;68.78;36.83;;;-0.70;99.90;;;;;;5072159;28;20033;-72
2022/12/10 02:52:52;;;;;;;68.25;35.08;;;-0.60;99.90;;;;;;5072449;28;20090;-72
2022/12/10 02:55:21;;;;;;;64.13;35.33;;;-0.60;99.90;;;;;;5072627;28;20111;-72
2022/12/10 02:58:16;;;;;;;59.92;32.85;;;-0.60;99.90;;;;;;5072342;28;20076;-72
2022/12/10 03:00:51;;;;;;;64.20;34.33;;;-0.60;99.90;;;;;;5072294;28;20045;-72
2022/12/10 03:03:34;;;;;;;61.47;34.30;;;-0.70;99.90;;;;;;5073359;28;20045;-72
2022/12/10 03:06:09;;;;;;;58.85;33.67;;;-0.70;99.90;;;;;;5072343;28;20044;-72
2022/12/10 03:09:00;;;;;;;66.35;35.05;;;-0.70;99.90;;;;;;5072454;28;20063;-72
2022/12/10 03:11:27;;;;;;;62.95;33.00;;;-0.70;99.90;;;;;;5072199;28;20451;-72
2022/12/10 03:14:03;;;;;;;61.72;34.53;;;-0.80;99.90;;;;;;5072082;28;20098;-72
2022/12/10 03:16:41;;;;;;;58.17;33.78;;;-0.70;99.90;;;;;;5073386;28;20131;-72
2022/12/10 03:19:13;;;;;;;61.50;34.08;;;-0.70;99.90;;;;;;5072085;28;20047;-72
2022/12/10 03:21:41;;;;;;;70.07;37.08;;;-0.80;99.90;;;;;;5072025;28;20533;-72
2022/12/10 03:24:09;;;;;;;68.30;36.78;;;-0.70;99.90;;;;;;5071940;28;20041;-72
2022/12/10 03:26:36;;;;;;;65.05;36.22;;;-0.80;99.90;;;;;;5071974;28;20041;-72
2022/12/10 03:29:07;;;;;;;62.35;34.83;;;-0.80;99.90;;;;;;5071944;28;20497;-72
2022/12/10 03:31:35;;;;;;;68.18;35.83;;;-0.70;99.90;;;;;;5072197;28;20087;-72
2022/12/10 03:34:02;;;;;;;65.63;35.47;;;-0.80;99.90;;;;;;5072069;28;20052;-71
2022/12/10 03:36:29;;;;;;;65.95;35.88;;;-0.80;99.90;;;;;;5072089;28;20048;-71
2022/12/10 03:38:56;;;;;;;63.78;35.75;;;-0.80;99.90;;;;;;5071844;28;20051;-71
2022/12/10 03:41:22;;;;;;;69.35;37.15;;;-0.70;99.90;;;;;;5073021;28;20045;-71
2022/12/10 03:43:53;;;;;;;62.97;34.50;;;-0.70;99.90;;;;;;5071747;28;20162;-71
2022/12/10 03:46:18;;;;;;;64.68;34.05;;;-0.70;99.90;;;;;;5071876;28;20036;-71
2022/12/10 03:48:44;;;;;;;65.10;35.95;;;-0.70;99.90;;;;;;5071846;28;20051;-71
2022/12/10 03:51:09;;;;;;;64.07;36.10;;;-0.70;99.90;;;;;;5071722;28;20171;-71
2022/12/10 03:53:35;;;;;;;65.85;36.08;;;-0.70;99.90;;;;;;5071735;28;20036;-71
2022/12/10 03:56:01;;;;;;;60.88;34.83;;;-0.70;99.90;;;;;;5071928;28;20179;-71
2022/12/10 03:58:26;;;;;;;71.30;37.03;;;-0.80;99.90;;;;;;5071679;28;20525;-71
2022/12/10 04:00:52;;;;;;;65.63;35.08;;;-0.70;99.90;;;;;;5073413;28;20036;-71
2022/12/10 04:03:17;;;;;;;63.15;36.40;;;-0.70;99.90;;;;;;5075784;28;20090;-71
2022/12/10 04:05:43;;;;;;;64.07;35.25;;;-0.70;99.90;;;;;;5075925;28;20036;-72
2022/12/10 04:08:08;;;;;;;68.45;36.67;;;-0.80;99.90;;;;;;5075668;28;20453;-72
2022/12/10 04:10:37;;;;;;;68.30;36.22;;;-0.80;99.90;;;;;;5075616;28;20036;-72
2022/12/10 04:18:32;;;;;;;65.70;35.78;;;-0.80;99.90;;;;;;5077320;28;20131;-71
2022/12/10 04:29:09;;;;;;;67.65;35.95;;;-0.90;99.90;;;;;;5075255;28;20131;-72
2022/12/10 04:31:35;;;;;;;68.63;35.85;;;-0.90;99.90;;;;;;5075423;28;20127;-71
2022/12/10 04:34:01;;;;;;;67.68;36.03;;;-0.90;99.90;;;;;;5075191;28;20495;-71
2022/12/10 04:36:27;;;;;;;62.25;34.60;;;-0.90;99.90;;;;;;5075054;28;20056;-71
2022/12/10 04:38:52;;;;;;;66.72;37.00;;;-0.90;99.90;;;;;;5074988;28;20039;-71
2022/12/10 04:41:18;;;;;;;60.45;35.20;;;-0.90;99.90;;;;;;5074919;28;20044;-72
2022/12/10 04:43:44;;;;;;;62.85;34.10;;;-1.00;99.90;;;;;;5074844;28;20052;-72
2022/12/10 04:46:10;;;;;;;68.28;36.45;;;-1.00;99.90;;;;;;5074737;28;20044;-72
2022/12/10 04:48:35;;;;;;;60.08;33.92;;;-1.00;99.90;;;;;;5074895;28;20481;-72
2022/12/10 04:51:01;;;;;;;64.57;35.75;;;-1.00;99.90;;;;;;5075106;28;20056;-71
2022/12/10 04:53:27;;;;;;;61.88;35.50;;;-1.00;99.90;;;;;;5074767;28;20040;-71
2022/12/10 04:55:52;;;;;;;68.82;35.40;;;-1.00;99.90;;;;;;5074629;28;20046;-71
2022/12/10 04:58:18;;;;;;;74.85;37.13;;;-1.10;99.90;;;;;;5074700;28;20053;-71
2022/12/10 05:00:43;;;;;;;65.63;36.00;;;-1.10;99.90;;;;;;5074549;28;20149;-71
2022/12/10 05:03:09;;;;;;;63.08;34.53;;;-1.10;99.90;;;;;;5074617;28;20120;-71
2022/12/10 05:05:35;;;;;;;61.90;34.78;;;-1.20;99.90;;;;;;5074520;28;20110;-71
2022/12/10 05:08:00;;;;;;;65.32;35.58;;;-1.10;99.90;;;;;;5074499;28;20036;-71
2022/12/10 05:10:26;;;;;;;65.30;35.28;;;-1.20;99.90;;;;;;5057772;28;20097;-72
2022/12/10 05:12:52;;;;;;;68.82;35.75;;;-1.20;99.90;;;;;;5073775;28;20072;-72
2022/12/10 05:15:17;;;;;;;63.55;36.05;;;-1.20;99.90;;;;;;5074584;28;20109;-72
2022/12/10 05:17:43;;;;;;;62.35;34.33;;;-1.20;99.90;;;;;;5074573;28;20547;-71
2022/12/10 05:20:09;;;;;;;68.93;36.42;;;-1.20;99.90;;;;;;5074587;28;20549;-70
2022/12/10 05:25:19;;;;;;;67.18;35.95;;;-1.30;99.90;;;;;;5074156;28;20457;-70
2022/12/10 05:27:45;;;;;;;70.18;36.30;;;-1.30;99.90;;;;;;5074161;28;20040;-70
2022/12/10 05:30:11;;;;;;;64.47;34.70;;;-1.30;99.90;;;;;;5074099;28;20040;-69
2022/12/10 05:32:37;;;;;;;64.75;35.45;;;-1.40;99.90;;;;;;5074033;28;20041;-69
2022/12/10 05:35:03;;;;;;;65.60;34.35;;;-1.30;99.90;;;;;;5074202;28;20044;-70
2022/12/10 05:37:29;;;;;;;62.28;33.22;;;-1.40;99.90;;;;;;5074251;28;20067;-70
2022/12/10 05:39:55;;;;;;;61.78;34.20;;;-1.40;99.90;;;;;;5073883;28;20490;-70
2022/12/10 05:42:20;;;;;;;63.45;34.60;;;-1.50;99.90;;;;;;5073832;28;20048;-70
2022/12/10 05:44:46;;;;;;;61.78;35.30;;;-1.40;99.90;;;;;;5074064;28;20083;-70
2022/12/10 05:47:11;;;;;;;68.10;35.40;;;-1.40;99.90;;;;;;5073653;28;20048;-69
2022/12/10 05:49:37;;;;;;;65.45;35.42;;;-1.40;99.90;;;;;;5073703;28;20059;-69
2022/12/10 05:52:03;;;;;;;67.75;36.63;;;-1.30;99.90;;;;;;5073713;28;20082;-69
2022/12/10 05:54:28;;;;;;;65.47;34.88;;;-1.30;99.90;;;;;;5073539;28;20126;-70
2022/12/10 05:56:54;;;;;;;64.43;36.53;;;-1.30;99.90;;;;;;5073619;28;20040;-70
2022/12/10 05:59:20;;;;;;;70.63;36.75;;;-1.20;99.90;;;;;;5073867;28;20048;-70
2022/12/10 06:01:45;;;;;;;78.82;39.40;;;-1.20;99.90;;;;;;5073612;28;20508;-69
2022/12/10 06:04:11;;;;;;;72.95;38.13;;;-1.20;99.90;;;;;;5073694;28;20459;-69
2022/12/10 06:06:39;;;;;;;74.53;38.58;;;-1.20;99.90;;;;;;5073373;28;20526;-69
2022/12/10 06:09:06;;;;;;;75.78;40.00;;;-1.20;99.90;;;;;;5073368;28;20119;-70
2022/12/10 06:11:32;;;;;;;87.30;41.40;;;-1.20;99.90;;;;;;5073608;28;20560;-69
2022/12/10 06:13:58;;;;;;;83.30;40.13;;;-1.20;99.90;;;;;;5073204;28;20128;-69
2022/12/10 06:16:26;;;;;;;81.43;38.97;;;-1.20;99.90;;;;;;5073213;28;20042;-69
2022/12/10 06:18:52;;;;;;;91.45;41.10;;;-1.20;99.90;;;;;;5073403;28;20044;-69
2022/12/10 06:21:19;;;;;;;87.57;40.42;;;-1.20;99.90;;;;;;5073294;28;20044;-69
2022/12/10 06:23:46;;;;;;;89.38;41.15;;;-1.30;99.90;;;;;;5072125;28;20036;-69
2022/12/10 06:26:14;;;;;;;90.47;41.55;;;-1.20;99.90;;;;;;5073207;28;20040;-69
2022/12/10 06:28:41;;;;;;;89.35;42.28;;;-1.30;99.90;;;;;;5072928;28;20037;-69
2022/12/10 06:31:07;;;;;;;87.78;42.17;;;-1.30;99.90;;;;;;5073181;28;20118;-69
2022/12/10 06:33:33;;;;;;;90.95;42.72;;;-1.20;99.90;;;;;;5073072;28;20455;-69
2022/12/10 06:35:59;;;;;;;95.13;43.15;;;-1.20;99.90;;;;;;5072719;28;20048;-69
2022/12/10 06:38:24;;;;;;;94.13;43.38;;;-1.20;99.90;;;;;;5056920;28;20041;-69
2022/12/10 06:40:50;;;;;;;87.32;42.53;;;-1.30;99.90;;;;;;5072619;28;20044;-69
2022/12/10 06:43:16;;;;;;;91.53;41.00;;;-1.20;99.90;;;;;;5056212;28;20048;-69
2022/12/10 06:45:43;;;;;;;96.32;42.83;;;-1.30;99.90;;;;;;5072753;28;20040;-69
2022/12/10 06:48:09;;;;;;;91.30;41.63;;;-1.20;99.90;;;;;;5072489;28;20043;-69
2022/12/10 06:50:35;;;;;;;97.55;43.17;;;-1.30;99.90;;;;;;5072545;28;20037;-69
2022/12/10 06:53:01;;;;;;;103.85;42.53;;;-1.30;99.90;;;;;;5073941;28;20093;-69
2022/12/10 06:55:26;;;;;;;96.13;42.30;;;-1.30;99.90;;;;;;5072367;28;20044;-69
2022/12/10 06:57:53;;;;;;;106.80;44.55;;;-1.30;99.90;;;;;;5072424;28;20162;-69
2022/12/10 07:00:19;;;;;;;100.35;42.95;;;-1.40;99.90;;;;;;5072589;28;20447;-69
2022/12/10 07:02:45;;;;;;;112.95;45.28;;;-1.40;99.90;;;;;;5072279;28;20419;-69
2022/12/10 07:05:10;;;;;;;106.93;45.25;;;-1.40;99.90;;;;;;5072506;28;20477;-69
2022/12/10 07:07:36;;;;;;;103.20;45.47;;;-1.40;99.90;;;;;;5072497;28;20036;-69
2022/12/10 07:10:02;;;;;;;100.25;44.10;;;-1.40;99.90;;;;;;5072821;28;20497;-69
2022/12/10 07:12:28;;;;;;;109.50;44.85;;;-1.40;99.90;;;;;;5072420;28;20036;-69
2022/12/10 07:14:53;;;;;;;107.95;45.67;;;-1.40;99.90;;;;;;5072334;28;20485;-70
2022/12/10 07:17:19;;;;;;;102.63;43.53;;;-1.40;99.90;;;;;;5072093;28;20448;-70
2022/12/10 07:19:44;;;;;;;90.15;42.97;;;-1.40;99.90;;;;;;5072082;28;20047;-70
2022/12/10 07:22:10;;;;;;;93.05;41.70;;;-1.30;99.90;;;;;;5071924;28;20071;-70
2022/12/10 07:24:36;;;;;;;100.70;42.30;;;-1.30;99.90;;;;;;5071956;28;20119;-69
2022/12/10 07:27:04;;;;;;;86.25;41.72;;;-1.30;99.90;;;;;;5071961;28;20071;-69
2022/12/10 07:29:30;;;;;;;96.70;42.78;;;-1.30;99.90;;;;;;5071964;28;20037;-69
2022/12/10 07:31:56;;;;;;;96.68;43.75;;;-1.30;99.90;;;;;;5072265;28;20044;-69
2022/12/10 07:34:21;;;;;;;96.85;42.95;;;-1.30;99.90;;;;;;5071794;28;20048;-69
2022/12/10 07:36:47;;;;;;;91.50;41.78;;;-1.30;99.90;;;;;;5071872;28;20040;-69
2022/12/10 07:39:17;;;;;;;93.80;41.67;;;-1.30;99.90;;;;;;5071916;28;20408;-70
2022/12/10 07:41:52;;;;;;;95.95;42.17;;;-1.30;99.90;;;;;;5071845;28;20413;-70
2022/12/10 07:44:20;;;;;;;94.03;42.05;;;-1.30;99.90;;;;;;5072343;28;20029;-70
2022/12/10 07:46:47;;;;;;;88.10;41.88;;;-1.30;99.90;;;;;;5071642;28;20037;-70
2022/12/10 07:49:13;;;;;;;95.40;42.90;;;-1.30;99.90;;;;;;5071769;28;20048;-70
2022/12/10 07:51:39;;;;;;;85.32;39.75;;;-1.40;99.90;;;;;;5071775;28;20044;-70
2022/12/10 07:54:04;;;;;;;83.30;40.95;;;-1.30;99.90;;;;;;5071678;28;20123;-70
2022/12/10 07:56:30;;;;;;;91.32;43.15;;;-1.30;99.90;;;;;;5071753;28;20044;-70
2022/12/10 07:58:56;;;;;;;83.65;39.20;;;-1.20;99.90;;;;;;5071964;28;20044;-70
2022/12/10 08:01:25;;;;;;;93.00;41.33;;;-1.20;99.90;;;;;;5071651;28;20515;-70
2022/12/10 08:03:56;;;;;;;83.88;40.53;;;-1.20;99.90;;;;;;5071536;28;20481;-70
2022/12/10 08:06:21;;;;;;;80.75;39.13;;;-1.20;99.90;;;;;;5071894;28;20059;-70
2022/12/10 08:08:48;;;;;;;79.57;39.13;;;-1.20;99.90;;;;;;5071553;28;20509;-70
2022/12/10 08:11:15;;;;;;;90.47;41.47;;;-1.10;99.90;;;;;;5071835;28;20048;-69
2022/12/10 08:13:41;;;;;;;82.38;38.80;;;-1.10;99.90;;;;;;5071929;28;20040;-70
2022/12/10 08:16:12;;;;;;;88.63;40.97;;;-1.10;99.90;;;;;;5071761;28;20517;-70
2022/12/10 08:18:37;;;;;;;89.05;42.05;;;-1.20;99.90;;;;;;5071998;28;20485;-70
2022/12/10 08:21:08;;;;;;;85.75;40.67;;;-1.10;99.90;;;;;;5071340;28;20071;-70
2022/12/10 08:23:34;;;;;;;79.75;39.13;;;-1.20;99.90;;;;;;5071655;28;20079;-70
2022/12/10 08:26:08;;;;;;;78.93;40.40;;;-1.10;99.90;;;;;;5071332;28;20098;-70
2022/12/10 08:28:35;;;;;;;81.95;37.55;;;-1.10;99.90;;;;;;5071348;28;20489;-70
2022/12/10 08:31:02;;;;;;;86.90;41.10;;;-1.10;99.90;;;;;;5071402;28;20040;-69
2022/12/10 08:33:27;;;;;;;80.43;39.47;;;-1.10;99.90;;;;;;5071354;28;20040;-70
2022/12/10 08:35:58;;;;;;;78.03;39.60;;;-1.10;99.90;;;;;;5071246;28;20428;-70
2022/12/10 08:38:24;;;;;;;76.93;39.20;;;-1.10;99.90;;;;;;5071589;28;20040;-70
2022/12/10 08:40:49;;;;;;;75.35;38.63;;;-1.00;99.90;;;;;;5071195;28;20508;-70
2022/12/10 08:43:15;;;;;;;77.63;40.00;;;-1.00;99.90;;;;;;5071179;28;20051;-69
2022/12/10 08:45:40;;;;;;;81.22;40.80;;;-1.00;99.90;;;;;;5071148;28;20044;-70
2022/12/10 08:48:06;;;;;;;77.07;38.85;;;-1.00;99.90;;;;;;5073114;28;20052;-70
2022/12/10 08:50:31;;;;;;;90.85;41.03;;;-1.00;99.90;;;;;;5075129;28;20036;-70
2022/12/10 08:52:57;;;;;;;81.28;39.80;;;-0.90;99.90;;;;;;5074784;28;20540;-69
2022/12/10 08:55:22;;;;;;;86.47;40.72;;;-0.90;99.90;;;;;;5074695;28;20059;-69
2022/12/10 08:57:48;;;;;;;89.28;41.22;;;-0.90;99.90;;;;;;5074955;28;20043;-69
2022/12/10 09:00:14;;;;;;;83.72;40.63;;;-0.90;99.90;;;;;;5074917;28;20585;-69
2022/12/10 09:02:40;;;;;;;81.07;41.17;;;-0.80;99.90;;;;;;5074512;28;20505;-69
2022/12/10 09:05:07;;;;;;;85.20;41.08;;;-0.80;99.90;;;;;;5074516;28;20079;-69
2022/12/10 09:07:33;;;;;;;83.38;41.80;;;-0.80;99.90;;;;;;5074454;28;20040;-69
2022/12/10 09:09:58;;;;;;;88.57;42.50;;;-0.80;99.90;;;;;;5074758;28;20040;-69
2022/12/10 09:12:24;;;;;;;85.00;39.78;;;-0.80;99.90;;;;;;5074386;28;20094;-69
2022/12/10 09:14:50;;;;;;;96.28;42.08;;;-0.90;99.90;;;;;;5074303;28;20070;-70
2022/12/10 09:17:15;;;;;;;81.97;39.33;;;-0.90;99.90;;;;;;5074385;28;20040;-69
2022/12/10 09:19:41;;;;;;;95.90;42.50;;;-0.90;99.90;;;;;;5074544;28;20040;-69
2022/12/10 09:22:06;;;;;;;94.25;42.25;;;-1.00;99.90;;;;;;5074169;28;20048;-69
2022/12/10 09:24:32;;;;;;;86.32;41.80;;;-0.90;99.90;;;;;;5074171;28;20040;-70
2022/12/10 09:26:57;;;;;;;93.10;40.95;;;-0.90;99.90;;;;;;5074150;28;20042;-69
2022/12/10 09:29:23;;;;;;;85.63;40.17;;;-0.90;99.90;;;;;;5074357;28;20083;-69
2022/12/10 09:31:52;;;;;;;83.43;40.80;;;-0.90;99.90;;;;;;5074344;28;20383;-69
2022/12/10 09:34:18;;;;;;;91.05;41.90;;;-0.90;99.90;;;;;;5074018;28;20037;-69
2022/12/10 09:36:44;;;;;;;93.20;41.95;;;-0.90;99.90;;;;;;5074002;28;20052;-69
2022/12/10 09:39:09;;;;;;;94.28;44.67;;;-1.00;99.90;;;;;;5074015;28;20128;-69
2022/12/10 09:42:13;;;;;;;94.20;41.15;;;-0.90;99.90;;;;;;5073861;28;20041;-69
2022/12/10 09:44:55;;;;;;;95.15;41.15;;;-0.90;99.90;;;;;;5073849;28;20037;-69
2022/12/10 09:47:26;;;;;;;87.25;40.50;;;-0.90;99.90;;;;;;5073704;28;20416;-69
2022/12/10 09:50:14;;;;;;;90.85;41.45;;;-0.90;99.90;;;;;;5073692;28;20036;-69
2022/12/10 09:52:43;;;;;;;83.88;40.47;;;-0.90;99.90;;;;;;5073749;28;20485;-69
2022/12/10 09:55:16;;;;;;;92.93;43.03;;;-0.90;99.90;;;;;;5073589;28;20468;-69
2022/12/10 09:57:46;;;;;;;93.20;42.60;;;-0.80;99.90;;;;;;5073631;28;20044;-69
2022/12/10 10:00:32;;;;;;;106.28;44.60;;;-0.90;99.90;;;;;;5074664;28;20117;-69
2022/12/10 10:02:59;;;;;;;100.30;43.75;;;-0.90;99.90;;;;;;5073523;28;20044;-70
2022/12/10 10:05:32;;;;;;;93.80;41.65;;;-0.80;99.90;;;;;;5073632;28;20448;-69
2022/12/10 10:08:01;;;;;;;87.43;39.90;;;-0.80;99.90;;;;;;5073439;28;20043;-69
2022/12/10 10:10:28;;;;;;;100.07;40.70;;;-0.80;99.90;;;;;;5073342;28;20390;-69
2022/12/10 10:13:08;;;;;;;102.60;42.30;;;-0.90;99.90;;;;;;5073292;28;20071;-69
2022/12/10 10:15:37;;;;;;;112.38;42.28;;;-0.80;99.90;;;;;;5073181;28;20066;-69
2022/12/10 10:18:28;;;;;;;116.40;44.67;;;-0.80;99.90;;;;;;5073175;28;20036;-69
2022/12/10 10:20:54;;;;;;;98.85;42.28;;;-0.80;99.90;;;;;;5045257;28;20051;-69
2022/12/10 10:23:20;;;;;;;105.80;42.97;;;-0.80;99.90;;;;;;5073268;28;20053;-69
2022/12/10 10:25:46;;;;;;;81.75;39.08;;;-0.80;99.90;;;;;;5072958;28;20073;-69
2022/12/10 10:28:16;;;;;;;93.63;38.78;;;-0.70;99.90;;;;;;5073213;28;20123;-69
2022/12/10 10:30:44;;;;;;;105.00;43.30;;;-0.70;99.90;;;;;;5072943;28;20045;-69
2022/12/10 10:33:13;;;;;;;88.13;41.47;;;-0.60;99.90;;;;;;5072854;28;20051;-69
2022/12/10 10:35:53;;;;;;;103.15;43.33;;;-0.50;99.90;;;;;;5072737;28;20036;-69
2022/12/10 10:38:25;;;;;;;108.78;44.10;;;-0.50;99.90;;;;;;5072816;28;20040;-69
2022/12/10 10:40:56;;;;;;;101.45;42.35;;;-0.50;99.90;;;;;;5072684;28;20120;-69
2022/12/10 10:43:33;;;;;;;105.22;44.13;;;-0.60;99.90;;;;;;5072726;28;20059;-69
2022/12/10 10:46:04;;;;;;;106.57;43.92;;;-0.60;99.90;;;;;;5072537;28;20116;-69
2022/12/10 10:48:31;;;;;;;116.82;46.03;;;-0.60;99.90;;;;;;5072627;28;20485;-69
2022/12/10 10:51:15;;;;;;;106.95;44.58;;;-0.70;99.90;;;;;;5072545;28;20085;-69
2022/12/10 10:53:46;;;;;;;114.53;43.03;;;-0.60;99.90;;;;;;5072440;28;20040;-69
2022/12/10 10:56:17;;;;;;;103.18;42.60;;;-0.60;99.90;;;;;;5072302;28;20572;-69
2022/12/10 10:58:47;;;;;;;113.68;44.47;;;-0.60;99.90;;;;;;5072685;28;20063;-69
2022/12/10 11:01:13;;;;;;;116.50;45.25;;;-0.50;99.90;;;;;;5072230;28;20127;-69
2022/12/10 11:03:47;;;;;;;110.88;43.80;;;-0.60;99.90;;;;;;5073253;28;20112;-69
2022/12/10 11:06:13;;;;;;;108.32;44.17;;;-0.50;99.90;;;;;;5072530;28;20097;-70
2022/12/10 11:08:40;;;;;;;113.05;44.03;;;-0.60;99.90;;;;;;5072229;28;20400;-69
2022/12/10 11:11:12;;;;;;;99.15;41.90;;;-0.50;99.90;;;;;;5071692;28;20072;-69
2022/12/10 11:13:38;;;;;;;85.78;37.08;;;-0.50;99.90;;;;;;5072363;28;20099;-69
2022/12/10 11:16:20;;;;;;;73.72;33.28;;;-0.40;99.90;;;;;;5072138;28;20485;-69
2022/12/10 11:19:02;;;;;;;71.25;32.53;;;-0.50;99.90;;;;;;5072190;28;20040;-69
2022/12/10 11:21:29;;;;;;;71.68;33.65;;;-0.40;99.90;;;;;;5072856;28;20075;-69
2022/12/10 11:23:56;;;;;;;76.80;33.85;;;-0.50;99.90;;;;;;5072074;28;20083;-69
2022/12/10 11:26:43;;;;;;;82.25;36.60;;;-0.40;99.90;;;;;;5072167;28;20040;-70
2022/12/10 11:29:33;;;;;;;84.38;35.53;;;-0.40;99.90;;;;;;5072064;28;20041;-69
2022/12/10 11:32:10;;;;;;;74.78;34.58;;;-0.40;99.90;;;;;;5072280;28;20106;-69
2022/12/10 11:34:57;;;;;;;82.40;36.05;;;-0.40;99.90;;;;;;5071871;28;20055;-70
2022/12/10 11:37:47;;;;;;;84.07;37.40;;;-0.40;99.90;;;;;;5072292;28;20107;-69
2022/12/10 11:40:27;;;;;;;88.80;36.80;;;-0.40;99.90;;;;;;5072219;28;20040;-70
2022/12/10 11:43:02;;;;;;;77.82;35.20;;;-0.30;99.90;;;;;;5071894;28;20052;-69
2022/12/10 11:45:46;;;;;;;61.55;30.45;;;-0.30;99.90;;;;;;5072001;28;20067;-70
2022/12/10 11:48:33;;;;;;;59.47;29.80;;;-0.30;99.90;;;;;;5071741;28;20497;-69
2022/12/10 11:51:11;;;;;;;61.25;28.00;;;-0.20;99.90;;;;;;5072270;28;20093;-69
2022/12/10 11:53:56;;;;;;;52.85;26.60;;;-0.20;99.90;;;;;;5071714;28;20068;-69
2022/12/10 11:56:30;;;;;;;48.55;26.08;;;-0.10;99.90;;;;;;5071985;28;20160;-69
2022/12/10 11:59:11;;;;;;;47.22;25.50;;;-0.20;99.90;;;;;;5071705;28;20043;-69
2022/12/10 12:02:22;;;;;;;55.00;27.85;;;-0.20;99.90;;;;;;5071947;28;20080;-70
2022/12/10 12:05:26;;;;;;;52.95;26.38;;;-0.10;99.90;;;;;;5072230;28;20049;-70
2022/12/10 12:08:13;;;;;;;57.55;28.13;;;-0.10;99.90;;;;;;5071758;28;20127;-69
2022/12/10 12:10:45;;;;;;;54.25;27.20;;;-0.20;99.90;;;;;;5071884;28;20079;-70
2022/12/10 12:13:22;;;;;;;55.17;26.95;;;-0.20;99.90;;;;;;5071518;28;20060;-70
2022/12/10 12:16:02;;;;;;;54.10;27.15;;;-0.10;99.90;;;;;;5071732;28;20497;-69
2022/12/10 12:18:47;;;;;;;55.78;27.13;;;-0.10;99.90;;;;;;5054827;28;20443;-69
2022/12/10 12:21:17;;;;;;;53.58;26.98;;;-0.10;99.90;;;;;;5071696;28;20156;-69
2022/12/10 12:23:55;;;;;;;51.92;26.27;;;0.00;99.90;;;;;;5074513;28;20505;-69
2022/12/10 12:26:29;;;;;;;58.25;29.48;;;0.00;99.90;;;;;;5075377;28;20041;-69
2022/12/10 12:29:09;;;;;;;58.15;28.23;;;0.00;99.90;;;;;;5075304;28;20047;-69
2022/12/10 12:31:39;;;;;;;58.97;28.77;;;0.00;99.90;;;;;;5075256;28;20048;-69
2022/12/10 12:34:17;;;;;;;61.67;30.05;;;0.00;99.90;;;;;;5075096;28;20044;-69
2022/12/10 12:36:43;;;;;;;72.32;31.63;;;0.10;99.90;;;;;;5075118;28;20040;-69
2022/12/10 12:39:28;;;;;;;64.15;30.77;;;0.00;99.90;;;;;;5075080;28;20041;-69
2022/12/10 12:42:17;;;;;;;72.75;31.38;;;0.10;99.90;;;;;;5075124;28;20071;-69
2022/12/10 12:45:17;;;;;;;72.50;32.25;;;0.00;99.90;;;;;;5074894;28;20545;-69
2022/12/10 12:47:56;;;;;;;69.00;30.05;;;0.00;99.90;;;;;;5017432;28;20050;-69
2022/12/10 12:50:32;;;;;;;66.50;31.13;;;0.10;99.90;;;;;;5017617;28;20040;-70
2022/12/10 12:52:59;;;;;;;80.88;35.25;;;0.10;99.90;;;;;;5017559;28;20064;-71
2022/12/10 12:56:21;;;;;;;76.50;32.72;;;0.10;99.90;;;;;;5017596;28;20430;-70